sensor_id;sensor_type;location;lat;lon;timestamp;P1;durP1;ratioP1;P2;durP2;ratioP2
5553;SDS011;2800;49.528;8.666;2023-03-31T00:02:19;11.00;;;3.10;;
5553;SDS011;2800;49.528;8.666;2023-03-31T00:04:46;9.00;;;3.30;;
5553;SDS011;2800;49.528;8.666;2023-03-31T00:07:23;9.37;;;2.97;;
5553;SDS011;2800;49.528;8.666;2023-03-31T00:09:49;9.20;;;2.77;;
5553;SDS011;2800;49.528;8.666;2023-03-31T00:12:19;9.93;;;2.90;;
5553;SDS011;2800;49.528;8.666;2023-03-31T00:14:45;11.07;;;3.40;;
5553;SDS011;2800;49.528;8.666;2023-03-31T00:17:11;8.67;;;3.00;;
5553;SDS011;2800;49.528;8.666;2023-03-31T00:19:37;10.37;;;3.37;;
5553;SDS011;2800;49.528;8.666;2023-03-31T00:22:04;11.50;;;3.13;;
5553;SDS011;2800;49.528;8.666;2023-03-31T00:24:29;10.60;;;2.87;;
5553;SDS011;2800;49.528;8.666;2023-03-31T00:27:00;12.20;;;3.33;;
5553;SDS011;2800;49.528;8.666;2023-03-31T00:29:26;11.00;;;3.37;;
5553;SDS011;2800;49.528;8.666;2023-03-31T00:31:52;10.70;;;3.53;;
5553;SDS011;2800;49.528;8.666;2023-03-31T00:34:19;8.43;;;3.20;;
5553;SDS011;2800;49.528;8.666;2023-03-31T00:36:45;11.77;;;3.47;;
5553;SDS011;2800;49.528;8.666;2023-03-31T00:39:14;13.60;;;3.80;;
5553;SDS011;2800;49.528;8.666;2023-03-31T00:41:42;11.67;;;3.53;;
5553;SDS011;2800;49.528;8.666;2023-03-31T00:44:10;7.87;;;2.50;;
5553;SDS011;2800;49.528;8.666;2023-03-31T00:49:30;12.13;;;3.63;;
5553;SDS011;2800;49.528;8.666;2023-03-31T00:52:05;12.77;;;3.07;;
5553;SDS011;2800;49.528;8.666;2023-03-31T00:54:40;7.13;;;2.87;;
5553;SDS011;2800;49.528;8.666;2023-03-31T00:57:09;8.67;;;3.40;;
5553;SDS011;2800;49.528;8.666;2023-03-31T00:59:37;12.20;;;3.30;;
5553;SDS011;2800;49.528;8.666;2023-03-31T01:02:05;14.27;;;3.77;;
5553;SDS011;2800;49.528;8.666;2023-03-31T01:04:33;10.40;;;3.13;;
5553;SDS011;2800;49.528;8.666;2023-03-31T01:07:08;14.83;;;3.47;;
5553;SDS011;2800;49.528;8.666;2023-03-31T01:09:40;9.60;;;3.70;;
5553;SDS011;2800;49.528;8.666;2023-03-31T01:12:11;10.67;;;3.20;;
5553;SDS011;2800;49.528;8.666;2023-03-31T01:14:39;11.40;;;3.00;;
5553;SDS011;2800;49.528;8.666;2023-03-31T01:17:05;15.47;;;3.63;;
5553;SDS011;2800;49.528;8.666;2023-03-31T01:28:03;13.60;;;3.00;;
5553;SDS011;2800;49.528;8.666;2023-03-31T01:36:27;7.70;;;2.93;;
5553;SDS011;2800;49.528;8.666;2023-03-31T01:44:51;9.60;;;2.80;;
5553;SDS011;2800;49.528;8.666;2023-03-31T01:47:29;12.27;;;3.37;;
5553;SDS011;2800;49.528;8.666;2023-03-31T01:50:09;9.40;;;2.90;;
5553;SDS011;2800;49.528;8.666;2023-03-31T01:52:45;8.93;;;2.90;;
5553;SDS011;2800;49.528;8.666;2023-03-31T01:55:17;11.67;;;3.17;;
5553;SDS011;2800;49.528;8.666;2023-03-31T02:00:50;11.77;;;3.10;;
5553;SDS011;2800;49.528;8.666;2023-03-31T02:03:25;9.40;;;3.00;;
5553;SDS011;2800;49.528;8.666;2023-03-31T02:05:59;11.87;;;3.00;;
5553;SDS011;2800;49.528;8.666;2023-03-31T02:08:35;8.73;;;3.50;;
5553;SDS011;2800;49.528;8.666;2023-03-31T02:11:05;8.57;;;3.03;;
5553;SDS011;2800;49.528;8.666;2023-03-31T02:13:31;10.53;;;2.90;;
5553;SDS011;2800;49.528;8.666;2023-03-31T02:15:59;9.63;;;3.10;;
5553;SDS011;2800;49.528;8.666;2023-03-31T02:18:30;11.13;;;3.10;;
5553;SDS011;2800;49.528;8.666;2023-03-31T02:21:02;9.47;;;2.87;;
5553;SDS011;2800;49.528;8.666;2023-03-31T02:23:30;10.70;;;3.47;;
5553;SDS011;2800;49.528;8.666;2023-03-31T02:26:01;11.97;;;3.53;;
5553;SDS011;2800;49.528;8.666;2023-03-31T02:28:33;15.90;;;3.67;;
5553;SDS011;2800;49.528;8.666;2023-03-31T02:33:32;12.93;;;3.70;;
5553;SDS011;2800;49.528;8.666;2023-03-31T02:35:58;12.67;;;3.80;;
5553;SDS011;2800;49.528;8.666;2023-03-31T02:38:24;10.33;;;3.27;;
5553;SDS011;2800;49.528;8.666;2023-03-31T02:40:50;11.13;;;3.13;;
5553;SDS011;2800;49.528;8.666;2023-03-31T02:43:15;10.10;;;3.50;;
5553;SDS011;2800;49.528;8.666;2023-03-31T02:48:30;10.63;;;3.37;;
5553;SDS011;2800;49.528;8.666;2023-03-31T02:56:48;8.77;;;2.93;;
5553;SDS011;2800;49.528;8.666;2023-03-31T03:05:47;9.03;;;2.90;;
5553;SDS011;2800;49.528;8.666;2023-03-31T03:08:28;12.67;;;3.50;;
5553;SDS011;2800;49.528;8.666;2023-03-31T03:16:38;10.80;;;3.10;;
5553;SDS011;2800;49.528;8.666;2023-03-31T03:19:08;8.70;;;2.90;;
5553;SDS011;2800;49.528;8.666;2023-03-31T03:21:41;10.00;;;2.83;;
5553;SDS011;2800;49.528;8.666;2023-03-31T03:24:09;8.60;;;2.70;;
5553;SDS011;2800;49.528;8.666;2023-03-31T03:26:35;10.47;;;2.90;;
5553;SDS011;2800;49.528;8.666;2023-03-31T03:29:01;14.93;;;3.20;;
5553;SDS011;2800;49.528;8.666;2023-03-31T03:31:28;11.63;;;3.00;;
5553;SDS011;2800;49.528;8.666;2023-03-31T03:33:54;13.00;;;3.47;;
5553;SDS011;2800;49.528;8.666;2023-03-31T03:36:20;10.30;;;3.30;;
5553;SDS011;2800;49.528;8.666;2023-03-31T03:38:46;10.53;;;3.00;;
5553;SDS011;2800;49.528;8.666;2023-03-31T03:41:12;10.90;;;2.87;;
5553;SDS011;2800;49.528;8.666;2023-03-31T03:43:38;9.90;;;2.80;;
5553;SDS011;2800;49.528;8.666;2023-03-31T03:46:03;10.47;;;3.27;;
5553;SDS011;2800;49.528;8.666;2023-03-31T03:48:29;12.80;;;3.33;;
5553;SDS011;2800;49.528;8.666;2023-03-31T03:50:54;7.33;;;2.83;;
5553;SDS011;2800;49.528;8.666;2023-03-31T03:53:21;10.37;;;3.17;;
5553;SDS011;2800;49.528;8.666;2023-03-31T03:55:46;12.70;;;3.30;;
5553;SDS011;2800;49.528;8.666;2023-03-31T03:58:15;11.30;;;3.30;;
5553;SDS011;2800;49.528;8.666;2023-03-31T04:00:43;8.30;;;2.70;;
5553;SDS011;2800;49.528;8.666;2023-03-31T04:03:09;9.97;;;3.10;;
5553;SDS011;2800;49.528;8.666;2023-03-31T04:05:35;10.90;;;2.80;;
5553;SDS011;2800;49.528;8.666;2023-03-31T04:08:00;9.50;;;3.27;;
5553;SDS011;2800;49.528;8.666;2023-03-31T04:10:26;8.73;;;3.03;;
5553;SDS011;2800;49.528;8.666;2023-03-31T04:12:52;8.20;;;2.63;;
5553;SDS011;2800;49.528;8.666;2023-03-31T04:15:18;8.60;;;2.80;;
5553;SDS011;2800;49.528;8.666;2023-03-31T04:17:43;11.17;;;3.23;;
5553;SDS011;2800;49.528;8.666;2023-03-31T04:20:14;11.07;;;2.97;;
5553;SDS011;2800;49.528;8.666;2023-03-31T04:22:40;7.63;;;2.77;;
5553;SDS011;2800;49.528;8.666;2023-03-31T04:25:06;13.47;;;3.30;;
5553;SDS011;2800;49.528;8.666;2023-03-31T04:27:46;9.73;;;2.83;;
5553;SDS011;2800;49.528;8.666;2023-03-31T04:30:19;8.97;;;3.07;;
5553;SDS011;2800;49.528;8.666;2023-03-31T04:32:49;9.07;;;3.17;;
5553;SDS011;2800;49.528;8.666;2023-03-31T04:35:20;9.37;;;3.27;;
5553;SDS011;2800;49.528;8.666;2023-03-31T04:37:47;15.17;;;3.60;;
5553;SDS011;2800;49.528;8.666;2023-03-31T04:40:13;10.17;;;2.90;;
5553;SDS011;2800;49.528;8.666;2023-03-31T04:42:40;8.97;;;2.97;;
5553;SDS011;2800;49.528;8.666;2023-03-31T04:45:06;10.20;;;2.90;;
5553;SDS011;2800;49.528;8.666;2023-03-31T04:47:32;9.10;;;2.73;;
5553;SDS011;2800;49.528;8.666;2023-03-31T04:49:57;12.63;;;3.53;;
5553;SDS011;2800;49.528;8.666;2023-03-31T04:52:23;10.10;;;3.10;;
5553;SDS011;2800;49.528;8.666;2023-03-31T04:54:48;11.63;;;3.50;;
5553;SDS011;2800;49.528;8.666;2023-03-31T04:57:14;10.40;;;3.40;;
5553;SDS011;2800;49.528;8.666;2023-03-31T04:59:39;7.27;;;3.30;;
5553;SDS011;2800;49.528;8.666;2023-03-31T05:02:05;11.50;;;3.50;;
5553;SDS011;2800;49.528;8.666;2023-03-31T05:04:30;11.60;;;3.87;;
5553;SDS011;2800;49.528;8.666;2023-03-31T05:06:56;11.17;;;3.87;;
5553;SDS011;2800;49.528;8.666;2023-03-31T05:09:21;11.10;;;4.00;;
5553;SDS011;2800;49.528;8.666;2023-03-31T05:11:47;11.90;;;4.03;;
5553;SDS011;2800;49.528;8.666;2023-03-31T05:14:13;13.37;;;4.30;;
5553;SDS011;2800;49.528;8.666;2023-03-31T05:16:38;11.30;;;3.30;;
5553;SDS011;2800;49.528;8.666;2023-03-31T05:19:05;8.13;;;3.17;;
5553;SDS011;2800;49.528;8.666;2023-03-31T05:21:31;8.03;;;3.50;;
5553;SDS011;2800;49.528;8.666;2023-03-31T05:23:57;7.27;;;3.33;;
5553;SDS011;2800;49.528;8.666;2023-03-31T05:26:23;11.17;;;4.10;;
5553;SDS011;2800;49.528;8.666;2023-03-31T05:28:49;10.10;;;3.70;;
5553;SDS011;2800;49.528;8.666;2023-03-31T05:31:16;11.97;;;3.70;;
5553;SDS011;2800;49.528;8.666;2023-03-31T05:33:42;9.60;;;4.23;;
5553;SDS011;2800;49.528;8.666;2023-03-31T05:36:11;12.60;;;4.37;;
5553;SDS011;2800;49.528;8.666;2023-03-31T05:38:40;9.20;;;4.30;;
5553;SDS011;2800;49.528;8.666;2023-03-31T05:41:05;9.27;;;3.93;;
5553;SDS011;2800;49.528;8.666;2023-03-31T05:43:33;11.80;;;5.00;;
5553;SDS011;2800;49.528;8.666;2023-03-31T05:45:59;9.90;;;4.00;;
5553;SDS011;2800;49.528;8.666;2023-03-31T05:48:24;10.93;;;5.00;;
5553;SDS011;2800;49.528;8.666;2023-03-31T05:50:50;10.47;;;4.57;;
5553;SDS011;2800;49.528;8.666;2023-03-31T05:53:15;10.57;;;4.70;;
5553;SDS011;2800;49.528;8.666;2023-03-31T05:55:41;10.10;;;4.90;;
5553;SDS011;2800;49.528;8.666;2023-03-31T05:58:06;11.20;;;4.77;;
5553;SDS011;2800;49.528;8.666;2023-03-31T06:00:32;13.73;;;4.83;;
5553;SDS011;2800;49.528;8.666;2023-03-31T06:03:00;12.60;;;4.70;;
5553;SDS011;2800;49.528;8.666;2023-03-31T06:05:25;10.97;;;5.47;;
5553;SDS011;2800;49.528;8.666;2023-03-31T06:07:52;11.80;;;4.97;;
5553;SDS011;2800;49.528;8.666;2023-03-31T06:10:18;13.80;;;5.73;;
5553;SDS011;2800;49.528;8.666;2023-03-31T06:12:44;11.70;;;6.03;;
5553;SDS011;2800;49.528;8.666;2023-03-31T06:15:09;13.00;;;5.43;;
5553;SDS011;2800;49.528;8.666;2023-03-31T06:17:35;12.67;;;6.00;;
5553;SDS011;2800;49.528;8.666;2023-03-31T06:20:00;11.93;;;5.90;;
5553;SDS011;2800;49.528;8.666;2023-03-31T06:22:26;13.70;;;6.70;;
5553;SDS011;2800;49.528;8.666;2023-03-31T06:24:51;13.83;;;6.27;;
5553;SDS011;2800;49.528;8.666;2023-03-31T06:27:17;13.50;;;6.93;;
5553;SDS011;2800;49.528;8.666;2023-03-31T06:29:42;12.93;;;6.30;;
5553;SDS011;2800;49.528;8.666;2023-03-31T06:32:08;12.90;;;6.10;;
5553;SDS011;2800;49.528;8.666;2023-03-31T06:34:33;12.27;;;6.73;;
5553;SDS011;2800;49.528;8.666;2023-03-31T06:36:59;17.90;;;5.67;;
5553;SDS011;2800;49.528;8.666;2023-03-31T06:39:25;15.63;;;6.63;;
5553;SDS011;2800;49.528;8.666;2023-03-31T06:41:50;15.73;;;6.37;;
5553;SDS011;2800;49.528;8.666;2023-03-31T06:44:16;10.30;;;5.80;;
5553;SDS011;2800;49.528;8.666;2023-03-31T06:46:43;11.77;;;6.07;;
5553;SDS011;2800;49.528;8.666;2023-03-31T06:49:08;13.40;;;6.43;;
5553;SDS011;2800;49.528;8.666;2023-03-31T06:51:34;13.10;;;6.70;;
5553;SDS011;2800;49.528;8.666;2023-03-31T06:53:59;15.13;;;6.73;;
5553;SDS011;2800;49.528;8.666;2023-03-31T06:56:25;17.37;;;6.80;;
5553;SDS011;2800;49.528;8.666;2023-03-31T06:58:52;15.33;;;6.67;;
5553;SDS011;2800;49.528;8.666;2023-03-31T07:01:17;12.50;;;6.50;;
5553;SDS011;2800;49.528;8.666;2023-03-31T07:03:43;11.60;;;5.40;;
5553;SDS011;2800;49.528;8.666;2023-03-31T07:06:08;14.60;;;6.03;;
5553;SDS011;2800;49.528;8.666;2023-03-31T07:08:34;20.30;;;6.70;;
5553;SDS011;2800;49.528;8.666;2023-03-31T07:11:00;16.30;;;6.73;;
5553;SDS011;2800;49.528;8.666;2023-03-31T07:13:26;12.33;;;5.80;;
5553;SDS011;2800;49.528;8.666;2023-03-31T07:15:53;16.80;;;6.80;;
5553;SDS011;2800;49.528;8.666;2023-03-31T07:18:19;19.00;;;7.33;;
5553;SDS011;2800;49.528;8.666;2023-03-31T07:20:48;13.80;;;6.63;;
5553;SDS011;2800;49.528;8.666;2023-03-31T07:23:14;13.83;;;6.60;;
5553;SDS011;2800;49.528;8.666;2023-03-31T07:25:40;13.93;;;6.13;;
5553;SDS011;2800;49.528;8.666;2023-03-31T07:28:05;19.10;;;6.20;;
5553;SDS011;2800;49.528;8.666;2023-03-31T07:30:31;10.10;;;5.20;;
5553;SDS011;2800;49.528;8.666;2023-03-31T07:32:56;10.77;;;6.20;;
5553;SDS011;2800;49.528;8.666;2023-03-31T07:35:22;14.90;;;6.53;;
5553;SDS011;2800;49.528;8.666;2023-03-31T07:37:49;12.97;;;6.30;;
5553;SDS011;2800;49.528;8.666;2023-03-31T07:40:17;16.43;;;6.00;;
5553;SDS011;2800;49.528;8.666;2023-03-31T07:42:45;14.70;;;6.30;;
5553;SDS011;2800;49.528;8.666;2023-03-31T07:45:14;12.53;;;6.30;;
5553;SDS011;2800;49.528;8.666;2023-03-31T07:47:40;12.70;;;6.30;;
5553;SDS011;2800;49.528;8.666;2023-03-31T07:50:07;11.27;;;6.10;;
5553;SDS011;2800;49.528;8.666;2023-03-31T07:52:34;12.43;;;6.43;;
5553;SDS011;2800;49.528;8.666;2023-03-31T07:54:59;17.20;;;7.10;;
5553;SDS011;2800;49.528;8.666;2023-03-31T07:57:25;16.70;;;6.33;;
5553;SDS011;2800;49.528;8.666;2023-03-31T07:59:50;13.87;;;6.50;;
5553;SDS011;2800;49.528;8.666;2023-03-31T08:02:16;12.53;;;5.97;;
5553;SDS011;2800;49.528;8.666;2023-03-31T08:04:42;18.10;;;7.60;;
5553;SDS011;2800;49.528;8.666;2023-03-31T08:07:09;14.60;;;7.53;;
5553;SDS011;2800;49.528;8.666;2023-03-31T08:09:37;17.07;;;7.27;;
5553;SDS011;2800;49.528;8.666;2023-03-31T08:12:03;12.27;;;6.33;;
5553;SDS011;2800;49.528;8.666;2023-03-31T08:14:29;17.93;;;7.23;;
5553;SDS011;2800;49.528;8.666;2023-03-31T08:16:55;14.70;;;7.20;;
5553;SDS011;2800;49.528;8.666;2023-03-31T08:19:21;12.97;;;6.13;;
5553;SDS011;2800;49.528;8.666;2023-03-31T08:21:48;12.20;;;5.70;;
5553;SDS011;2800;49.528;8.666;2023-03-31T08:24:13;11.83;;;5.77;;
5553;SDS011;2800;49.528;8.666;2023-03-31T08:26:42;11.63;;;6.00;;
5553;SDS011;2800;49.528;8.666;2023-03-31T08:29:08;13.00;;;6.23;;
5553;SDS011;2800;49.528;8.666;2023-03-31T08:31:34;16.00;;;7.23;;
5553;SDS011;2800;49.528;8.666;2023-03-31T08:33:59;16.00;;;6.27;;
5553;SDS011;2800;49.528;8.666;2023-03-31T08:36:26;14.50;;;6.33;;
5553;SDS011;2800;49.528;8.666;2023-03-31T08:38:52;14.03;;;6.40;;
5553;SDS011;2800;49.528;8.666;2023-03-31T08:41:40;14.67;;;6.67;;
5553;SDS011;2800;49.528;8.666;2023-03-31T08:44:18;16.63;;;6.60;;
5553;SDS011;2800;49.528;8.666;2023-03-31T08:46:59;14.37;;;6.20;;
5553;SDS011;2800;49.528;8.666;2023-03-31T08:49:27;14.10;;;6.70;;
5553;SDS011;2800;49.528;8.666;2023-03-31T08:52:06;14.10;;;6.77;;
5553;SDS011;2800;49.528;8.666;2023-03-31T08:54:37;13.83;;;6.37;;
5553;SDS011;2800;49.528;8.666;2023-03-31T08:57:10;15.43;;;7.20;;
5553;SDS011;2800;49.528;8.666;2023-03-31T08:59:44;20.53;;;8.00;;
5553;SDS011;2800;49.528;8.666;2023-03-31T09:02:14;14.93;;;7.37;;
5553;SDS011;2800;49.528;8.666;2023-03-31T09:08:05;18.97;;;7.73;;
5553;SDS011;2800;49.528;8.666;2023-03-31T09:13:23;18.80;;;6.80;;
5553;SDS011;2800;49.528;8.666;2023-03-31T09:16:07;17.53;;;6.70;;
5553;SDS011;2800;49.528;8.666;2023-03-31T09:18:42;16.40;;;7.10;;
5553;SDS011;2800;49.528;8.666;2023-03-31T09:23:38;15.00;;;6.90;;
5553;SDS011;2800;49.528;8.666;2023-03-31T09:26:23;21.23;;;7.30;;
5553;SDS011;2800;49.528;8.666;2023-03-31T09:29:10;16.67;;;6.00;;
5553;SDS011;2800;49.528;8.666;2023-03-31T09:31:43;14.17;;;6.13;;
5553;SDS011;2800;49.528;8.666;2023-03-31T09:34:12;14.43;;;5.60;;
5553;SDS011;2800;49.528;8.666;2023-03-31T09:36:39;15.67;;;5.77;;
5553;SDS011;2800;49.528;8.666;2023-03-31T09:39:05;13.10;;;5.20;;
5553;SDS011;2800;49.528;8.666;2023-03-31T09:41:30;21.17;;;6.03;;
5553;SDS011;2800;49.528;8.666;2023-03-31T09:43:56;9.97;;;4.00;;
5553;SDS011;2800;49.528;8.666;2023-03-31T09:46:34;12.13;;;3.70;;
5553;SDS011;2800;49.528;8.666;2023-03-31T09:49:03;10.70;;;3.60;;
5553;SDS011;2800;49.528;8.666;2023-03-31T09:51:40;14.93;;;3.63;;
5553;SDS011;2800;49.528;8.666;2023-03-31T09:54:15;10.13;;;3.00;;
5553;SDS011;2800;49.528;8.666;2023-03-31T09:56:48;12.10;;;3.40;;
5553;SDS011;2800;49.528;8.666;2023-03-31T10:01:45;10.93;;;3.60;;
5553;SDS011;2800;49.528;8.666;2023-03-31T10:04:18;9.37;;;3.73;;
5553;SDS011;2800;49.528;8.666;2023-03-31T10:06:46;10.23;;;3.90;;
5553;SDS011;2800;49.528;8.666;2023-03-31T10:09:12;14.23;;;4.13;;
5553;SDS011;2800;49.528;8.666;2023-03-31T10:11:50;11.20;;;4.30;;
5553;SDS011;2800;49.528;8.666;2023-03-31T10:14:23;11.00;;;3.97;;
5553;SDS011;2800;49.528;8.666;2023-03-31T10:16:52;10.97;;;4.20;;
5553;SDS011;2800;49.528;8.666;2023-03-31T10:19:23;13.43;;;5.53;;
5553;SDS011;2800;49.528;8.666;2023-03-31T10:21:54;14.83;;;4.90;;
5553;SDS011;2800;49.528;8.666;2023-03-31T10:24:20;14.07;;;4.63;;
5553;SDS011;2800;49.528;8.666;2023-03-31T10:26:47;12.87;;;4.80;;
5553;SDS011;2800;49.528;8.666;2023-03-31T10:29:15;13.87;;;4.80;;
5553;SDS011;2800;49.528;8.666;2023-03-31T10:31:49;10.77;;;4.67;;
5553;SDS011;2800;49.528;8.666;2023-03-31T10:34:15;14.60;;;4.80;;
5553;SDS011;2800;49.528;8.666;2023-03-31T10:36:45;13.20;;;4.70;;
5553;SDS011;2800;49.528;8.666;2023-03-31T10:39:14;18.50;;;4.27;;
5553;SDS011;2800;49.528;8.666;2023-03-31T10:41:41;10.13;;;3.80;;
5553;SDS011;2800;49.528;8.666;2023-03-31T10:44:10;9.87;;;3.90;;
5553;SDS011;2800;49.528;8.666;2023-03-31T10:46:56;9.97;;;4.33;;
5553;SDS011;2800;49.528;8.666;2023-03-31T10:49:41;11.10;;;4.47;;
5553;SDS011;2800;49.528;8.666;2023-03-31T10:52:15;11.63;;;4.77;;
5553;SDS011;2800;49.528;8.666;2023-03-31T10:54:48;10.17;;;3.57;;
5553;SDS011;2800;49.528;8.666;2023-03-31T10:57:17;12.37;;;3.97;;
5553;SDS011;2800;49.528;8.666;2023-03-31T11:05:14;15.00;;;4.00;;
5553;SDS011;2800;49.528;8.666;2023-03-31T11:08:02;12.73;;;4.17;;
5553;SDS011;2800;49.528;8.666;2023-03-31T11:14:05;11.33;;;2.90;;
5553;SDS011;2800;49.528;8.666;2023-03-31T11:16:54;10.10;;;2.90;;
5553;SDS011;2800;49.528;8.666;2023-03-31T11:22:29;10.00;;;3.27;;
5553;SDS011;2800;49.528;8.666;2023-03-31T11:30:39;13.30;;;3.40;;
5553;SDS011;2800;49.528;8.666;2023-03-31T11:33:20;11.13;;;2.50;;
5553;SDS011;2800;49.528;8.666;2023-03-31T11:35:57;13.70;;;3.10;;
5553;SDS011;2800;49.528;8.666;2023-03-31T11:41:56;8.53;;;2.53;;
5553;SDS011;2800;49.528;8.666;2023-03-31T11:44:35;8.00;;;2.57;;
5553;SDS011;2800;49.528;8.666;2023-03-31T11:47:06;7.23;;;2.83;;
5553;SDS011;2800;49.528;8.666;2023-03-31T11:49:37;8.27;;;2.70;;
5553;SDS011;2800;49.528;8.666;2023-03-31T11:54:48;9.57;;;2.00;;
5553;SDS011;2800;49.528;8.666;2023-03-31T11:57:30;8.63;;;2.57;;
5553;SDS011;2800;49.528;8.666;2023-03-31T12:02:50;14.00;;;3.40;;
5553;SDS011;2800;49.528;8.666;2023-03-31T12:05:23;10.47;;;2.90;;
5553;SDS011;2800;49.528;8.666;2023-03-31T12:07:59;8.97;;;3.00;;
5553;SDS011;2800;49.528;8.666;2023-03-31T12:10:30;9.43;;;2.60;;
5553;SDS011;2800;49.528;8.666;2023-03-31T12:16:10;13.93;;;3.30;;
5553;SDS011;2800;49.528;8.666;2023-03-31T12:18:44;12.70;;;3.17;;
5553;SDS011;2800;49.528;8.666;2023-03-31T12:21:32;14.00;;;3.50;;
5553;SDS011;2800;49.528;8.666;2023-03-31T12:24:00;11.77;;;3.37;;
5553;SDS011;2800;49.528;8.666;2023-03-31T12:26:43;11.50;;;3.20;;
5553;SDS011;2800;49.528;8.666;2023-03-31T12:32:04;9.77;;;2.90;;
5553;SDS011;2800;49.528;8.666;2023-03-31T12:34:36;10.90;;;2.47;;
5553;SDS011;2800;49.528;8.666;2023-03-31T12:37:29;13.27;;;2.70;;
5553;SDS011;2800;49.528;8.666;2023-03-31T12:54:26;8.43;;;2.10;;
5553;SDS011;2800;49.528;8.666;2023-03-31T12:57:11;8.13;;;2.50;;
5553;SDS011;2800;49.528;8.666;2023-03-31T12:59:40;7.40;;;2.47;;
5553;SDS011;2800;49.528;8.666;2023-03-31T13:04:41;6.77;;;1.90;;
5553;SDS011;2800;49.528;8.666;2023-03-31T13:09:55;5.03;;;1.53;;
5553;SDS011;2800;49.528;8.666;2023-03-31T13:12:23;5.40;;;2.00;;
5553;SDS011;2800;49.528;8.666;2023-03-31T13:14:51;7.60;;;2.23;;
5553;SDS011;2800;49.528;8.666;2023-03-31T13:17:31;9.80;;;2.10;;
5553;SDS011;2800;49.528;8.666;2023-03-31T13:23:21;8.27;;;2.27;;
5553;SDS011;2800;49.528;8.666;2023-03-31T13:30:57;6.40;;;2.23;;
5553;SDS011;2800;49.528;8.666;2023-03-31T13:39:10;8.87;;;2.00;;
5553;SDS011;2800;49.528;8.666;2023-03-31T13:41:51;6.43;;;1.80;;
5553;SDS011;2800;49.528;8.666;2023-03-31T13:47:29;7.43;;;1.97;;
5553;SDS011;2800;49.528;8.666;2023-03-31T13:50:18;7.57;;;1.90;;
5553;SDS011;2800;49.528;8.666;2023-03-31T13:52:59;6.70;;;2.07;;
5553;SDS011;2800;49.528;8.666;2023-03-31T14:01:46;8.57;;;2.73;;
5553;SDS011;2800;49.528;8.666;2023-03-31T14:04:39;9.43;;;2.80;;
5553;SDS011;2800;49.528;8.666;2023-03-31T14:07:14;12.00;;;3.90;;
5553;SDS011;2800;49.528;8.666;2023-03-31T14:09:45;9.50;;;3.27;;
5553;SDS011;2800;49.528;8.666;2023-03-31T14:12:29;10.10;;;2.87;;
5553;SDS011;2800;49.528;8.666;2023-03-31T14:14:57;7.03;;;2.40;;
5553;SDS011;2800;49.528;8.666;2023-03-31T14:17:26;10.17;;;2.63;;
5553;SDS011;2800;49.528;8.666;2023-03-31T14:25:33;11.53;;;2.37;;
5553;SDS011;2800;49.528;8.666;2023-03-31T14:39:30;9.37;;;3.30;;
5553;SDS011;2800;49.528;8.666;2023-03-31T14:42:04;9.50;;;2.83;;
5553;SDS011;2800;49.528;8.666;2023-03-31T14:44:35;10.63;;;3.17;;
5553;SDS011;2800;49.528;8.666;2023-03-31T14:47:02;11.47;;;2.50;;
5553;SDS011;2800;49.528;8.666;2023-03-31T14:49:28;13.47;;;2.87;;
5553;SDS011;2800;49.528;8.666;2023-03-31T14:52:04;9.23;;;2.60;;
5553;SDS011;2800;49.528;8.666;2023-03-31T14:54:47;7.77;;;2.60;;
5553;SDS011;2800;49.528;8.666;2023-03-31T14:57:17;8.93;;;2.60;;
5553;SDS011;2800;49.528;8.666;2023-03-31T14:59:46;5.57;;;2.10;;
5553;SDS011;2800;49.528;8.666;2023-03-31T15:02:20;9.93;;;3.60;;
5553;SDS011;2800;49.528;8.666;2023-03-31T15:04:56;8.20;;;2.20;;
5553;SDS011;2800;49.528;8.666;2023-03-31T15:07:22;8.30;;;2.43;;
5553;SDS011;2800;49.528;8.666;2023-03-31T15:09:48;10.23;;;2.87;;
5553;SDS011;2800;49.528;8.666;2023-03-31T15:12:16;9.90;;;3.67;;
5553;SDS011;2800;49.528;8.666;2023-03-31T15:14:44;11.23;;;3.10;;
5553;SDS011;2800;49.528;8.666;2023-03-31T15:17:16;9.30;;;2.53;;
5553;SDS011;2800;49.528;8.666;2023-03-31T15:19:55;7.10;;;2.67;;
5553;SDS011;2800;49.528;8.666;2023-03-31T15:22:24;9.77;;;2.90;;
5553;SDS011;2800;49.528;8.666;2023-03-31T15:24:51;8.63;;;2.67;;
5553;SDS011;2800;49.528;8.666;2023-03-31T15:30:01;9.90;;;3.67;;
5553;SDS011;2800;49.528;8.666;2023-03-31T15:32:35;10.97;;;3.00;;
5553;SDS011;2800;49.528;8.666;2023-03-31T15:35:03;14.13;;;3.40;;
5553;SDS011;2800;49.528;8.666;2023-03-31T15:37:30;12.57;;;4.90;;
5553;SDS011;2800;49.528;8.666;2023-03-31T15:40:09;10.70;;;4.30;;
5553;SDS011;2800;49.528;8.666;2023-03-31T15:42:43;9.70;;;3.03;;
5553;SDS011;2800;49.528;8.666;2023-03-31T15:47:51;13.17;;;2.93;;
5553;SDS011;2800;49.528;8.666;2023-03-31T15:50:19;7.90;;;2.80;;
5553;SDS011;2800;49.528;8.666;2023-03-31T15:52:53;10.23;;;3.33;;
5553;SDS011;2800;49.528;8.666;2023-03-31T15:57:47;8.77;;;2.60;;
5553;SDS011;2800;49.528;8.666;2023-03-31T16:03:00;9.63;;;2.40;;
5553;SDS011;2800;49.528;8.666;2023-03-31T16:05:40;12.37;;;2.80;;
5553;SDS011;2800;49.528;8.666;2023-03-31T16:08:13;12.43;;;2.80;;
5553;SDS011;2800;49.528;8.666;2023-03-31T16:10:43;12.73;;;3.20;;
5553;SDS011;2800;49.528;8.666;2023-03-31T16:13:09;12.53;;;3.50;;
5553;SDS011;2800;49.528;8.666;2023-03-31T16:15:45;11.73;;;3.73;;
5553;SDS011;2800;49.528;8.666;2023-03-31T16:18:17;11.67;;;3.70;;
5553;SDS011;2800;49.528;8.666;2023-03-31T16:20:53;11.40;;;3.80;;
5553;SDS011;2800;49.528;8.666;2023-03-31T16:23:22;15.33;;;4.30;;
5553;SDS011;2800;49.528;8.666;2023-03-31T16:25:51;9.03;;;2.93;;
5553;SDS011;2800;49.528;8.666;2023-03-31T16:28:21;10.90;;;3.00;;
5553;SDS011;2800;49.528;8.666;2023-03-31T16:30:52;11.97;;;3.33;;
5553;SDS011;2800;49.528;8.666;2023-03-31T16:33:19;12.53;;;3.23;;
5553;SDS011;2800;49.528;8.666;2023-03-31T16:35:47;9.07;;;2.80;;
5553;SDS011;2800;49.528;8.666;2023-03-31T16:38:20;8.93;;;2.90;;
5553;SDS011;2800;49.528;8.666;2023-03-31T16:40:48;9.03;;;3.13;;
5553;SDS011;2800;49.528;8.666;2023-03-31T16:43:25;10.30;;;3.27;;
5553;SDS011;2800;49.528;8.666;2023-03-31T16:45:54;8.67;;;2.97;;
5553;SDS011;2800;49.528;8.666;2023-03-31T16:48:24;7.53;;;2.90;;
5553;SDS011;2800;49.528;8.666;2023-03-31T16:50:52;10.07;;;3.13;;
5553;SDS011;2800;49.528;8.666;2023-03-31T16:53:19;7.60;;;3.40;;
5553;SDS011;2800;49.528;8.666;2023-03-31T16:55:47;7.40;;;2.93;;
5553;SDS011;2800;49.528;8.666;2023-03-31T16:58:14;11.80;;;6.80;;
5553;SDS011;2800;49.528;8.666;2023-03-31T17:00:40;9.67;;;2.87;;
5553;SDS011;2800;49.528;8.666;2023-03-31T17:03:07;9.40;;;3.17;;
5553;SDS011;2800;49.528;8.666;2023-03-31T17:05:40;10.93;;;2.70;;
5553;SDS011;2800;49.528;8.666;2023-03-31T17:08:07;6.80;;;2.50;;
5553;SDS011;2800;49.528;8.666;2023-03-31T17:10:34;9.43;;;2.50;;
5553;SDS011;2800;49.528;8.666;2023-03-31T17:13:01;9.30;;;2.77;;
5553;SDS011;2800;49.528;8.666;2023-03-31T17:15:26;10.87;;;2.80;;
5553;SDS011;2800;49.528;8.666;2023-03-31T17:17:53;8.13;;;2.33;;
5553;SDS011;2800;49.528;8.666;2023-03-31T17:20:20;7.70;;;2.90;;
5553;SDS011;2800;49.528;8.666;2023-03-31T17:22:46;7.83;;;2.80;;
5553;SDS011;2800;49.528;8.666;2023-03-31T17:25:12;8.97;;;3.57;;
5553;SDS011;2800;49.528;8.666;2023-03-31T17:27:38;8.80;;;3.40;;
5553;SDS011;2800;49.528;8.666;2023-03-31T17:30:04;10.67;;;3.97;;
5553;SDS011;2800;49.528;8.666;2023-03-31T17:32:31;13.07;;;6.73;;
5553;SDS011;2800;49.528;8.666;2023-03-31T17:34:56;8.33;;;3.40;;
5553;SDS011;2800;49.528;8.666;2023-03-31T17:37:22;7.30;;;2.20;;
5553;SDS011;2800;49.528;8.666;2023-03-31T17:39:48;7.63;;;2.23;;
5553;SDS011;2800;49.528;8.666;2023-03-31T17:42:14;7.70;;;2.00;;
5553;SDS011;2800;49.528;8.666;2023-03-31T17:44:40;5.83;;;2.00;;
5553;SDS011;2800;49.528;8.666;2023-03-31T17:47:06;4.77;;;1.63;;
5553;SDS011;2800;49.528;8.666;2023-03-31T17:49:32;4.87;;;2.00;;
5553;SDS011;2800;49.528;8.666;2023-03-31T17:51:58;5.23;;;1.80;;
5553;SDS011;2800;49.528;8.666;2023-03-31T17:54:24;4.93;;;1.80;;
5553;SDS011;2800;49.528;8.666;2023-03-31T17:56:50;5.23;;;1.83;;
5553;SDS011;2800;49.528;8.666;2023-03-31T17:59:17;4.87;;;1.80;;
5553;SDS011;2800;49.528;8.666;2023-03-31T18:01:43;6.20;;;1.90;;
5553;SDS011;2800;49.528;8.666;2023-03-31T18:04:09;5.73;;;2.50;;